Time;durP1;ratioP1;P1;durP2;ratioP2;P2;SDS_P1;SDS_P2;PMS_P1;PMS_P2;Temp;Humidity;BMP_temperature;BMP_pressure;BME280_temperature;BME280_humidity;BME280_pressure;Samples;Min_cycle;Max_cycle;Signal;HPM_P1;HPM_P2
2023/11/25 00:01:04;;;;;;;1.70;0.40;;;;;;;;;;4953693;28;20035;-77
2023/11/25 00:03:29;;;;;;;1.17;0.20;;;;;;;;;;4952151;28;20043;-77
2023/11/25 00:05:54;;;;;;;1.77;0.30;;;;;;;;;;4971790;28;20035;-77
2023/11/25 00:08:20;;;;;;;2.78;0.82;;;;;;;;;;4970336;28;20403;-77
2023/11/25 00:10:45;;;;;;;2.80;0.60;;;;;;;;;;4963027;28;20047;-76
2023/11/25 00:13:11;;;;;;;1.88;0.75;;;;;;;;;;4961290;28;20306;-77
2023/11/25 00:15:36;;;;;;;3.60;0.60;;;;;;;;;;4960199;28;20134;-76
2023/11/25 00:18:03;;;;;;;6.78;1.05;;;;;;;;;;4968633;28;20041;-77
2023/11/25 00:20:28;;;;;;;4.18;1.15;;;;;;;;;;4957342;28;20042;-76
2023/11/25 00:22:53;;;;;;;3.38;0.65;;;;;;;;;;4962279;28;20023;-76
2023/11/25 00:25:19;;;;;;;4.03;0.70;;;;;;;;;;4963775;28;20042;-77
2023/11/25 00:27:47;;;;;;;4.80;1.35;;;;;;;;;;4963369;28;20042;-77
2023/11/25 00:30:14;;;;;;;2.85;0.80;;;;;;;;;;4955464;28;20031;-76
2023/11/25 00:32:40;;;;;;;3.17;0.90;;;;;;;;;;4961561;28;20024;-76
2023/11/25 00:35:07;;;;;;;3.40;0.55;;;;;;;;;;4967883;28;20055;-76
2023/11/25 00:37:32;;;;;;;3.35;0.82;;;;;;;;;;4965140;28;20065;-76
2023/11/25 00:39:59;;;;;;;3.15;0.70;;;;;;;;;;4961348;28;20456;-76
2023/11/25 00:42:24;;;;;;;3.85;1.00;;;;;;;;;;4958014;28;20519;-76
2023/11/25 00:44:49;;;;;;;2.90;0.85;;;;;;;;;;4979293;23;20058;-76
2023/11/25 00:47:15;;;;;;;3.70;0.80;;;;;;;;;;4991233;28;20070;-76
2023/11/25 00:49:41;;;;;;;4.22;1.33;;;;;;;;;;4997553;28;20038;-76
2023/11/25 00:52:07;;;;;;;4.40;1.17;;;;;;;;;;4991654;28;20034;-76
2023/11/25 00:54:33;;;;;;;1.52;0.63;;;;;;;;;;4990347;28;20026;-76
2023/11/25 00:56:59;;;;;;;4.20;0.75;;;;;;;;;;4982076;28;20058;-76
2023/11/25 00:59:24;;;;;;;8.05;1.08;;;;;;;;;;4984044;28;20501;-76
2023/11/25 01:01:49;;;;;;;4.25;0.80;;;;;;;;;;4982542;28;20060;-76
2023/11/25 01:04:15;;;;;;;4.22;0.98;;;;;;;;;;4981010;28;20042;-76
2023/11/25 01:06:43;;;;;;;2.00;0.77;;;;;;;;;;4982596;28;20069;-76
2023/11/25 01:09:09;;;;;;;4.70;1.20;;;;;;;;;;4983317;28;20038;-76
2023/11/25 01:11:34;;;;;;;2.83;0.95;;;;;;;;;;4986488;28;20022;-76
2023/11/25 01:13:59;;;;;;;3.60;0.80;;;;;;;;;;4980148;28;20394;-76
2023/11/25 01:16:25;;;;;;;4.53;0.85;;;;;;;;;;4984015;28;20073;-75
2023/11/25 01:18:50;;;;;;;2.60;0.85;;;;;;;;;;4981914;28;20558;-75
2023/11/25 01:21:16;;;;;;;4.05;0.90;;;;;;;;;;4978046;28;20031;-76
2023/11/25 01:23:42;;;;;;;3.60;0.85;;;;;;;;;;4973413;28;20118;-75
2023/11/25 01:26:08;;;;;;;3.78;1.02;;;;;;;;;;4979886;28;20110;-75
2023/11/25 01:28:34;;;;;;;2.42;0.68;;;;;;;;;;4989516;28;20105;-76
2023/11/25 01:30:59;;;;;;;3.80;0.70;;;;;;;;;;4986095;28;20546;-75
2023/11/25 01:33:25;;;;;;;3.38;0.77;;;;;;;;;;4983376;28;20039;-76
2023/11/25 01:35:50;;;;;;;4.05;0.82;;;;;;;;;;4982312;28;20062;-75
2023/11/25 01:38:15;;;;;;;5.60;0.85;;;;;;;;;;4982774;28;20034;-76
2023/11/25 01:40:41;;;;;;;4.70;1.08;;;;;;;;;;4981983;28;20047;-76
2023/11/25 01:43:10;;;;;;;1.92;0.60;;;;;;;;;;4983334;28;20045;-75
2023/11/25 01:45:35;;;;;;;3.80;1.10;;;;;;;;;;4988165;28;20437;-75
2023/11/25 01:48:02;;;;;;;4.95;0.90;;;;;;;;;;4984257;28;20078;-75
2023/11/25 01:50:29;;;;;;;1.88;0.70;;;;;;;;;;4979804;28;20111;-76
2023/11/25 01:52:54;;;;;;;1.90;0.70;;;;;;;;;;4999226;28;20026;-76
2023/11/25 01:55:19;;;;;;;8.25;1.27;;;;;;;;;;4981009;28;20042;-75
2023/11/25 01:57:45;;;;;;;2.40;0.65;;;;;;;;;;4988296;28;20038;-75
2023/11/25 02:00:13;;;;;;;4.28;0.60;;;;;;;;;;4979536;28;20045;-75
2023/11/25 02:02:41;;;;;;;3.28;0.68;;;;;;;;;;4985919;28;20056;-75
2023/11/25 02:05:07;;;;;;;2.55;0.75;;;;;;;;;;4979709;28;20034;-76
2023/11/25 02:07:33;;;;;;;4.70;1.00;;;;;;;;;;4985171;28;20026;-75
2023/11/25 02:09:58;;;;;;;6.75;0.90;;;;;;;;;;4979526;28;20030;-75
2023/11/25 02:12:23;;;;;;;2.80;0.98;;;;;;;;;;4985500;28;20022;-75
2023/11/25 02:14:49;;;;;;;4.30;0.77;;;;;;;;;;4981469;28;20034;-75
2023/11/25 02:17:14;;;;;;;4.22;0.80;;;;;;;;;;4983089;28;20122;-75
2023/11/25 02:19:42;;;;;;;6.22;0.77;;;;;;;;;;4979301;28;20487;-75
2023/11/25 02:22:08;;;;;;;4.13;0.90;;;;;;;;;;4977826;28;20035;-76
2023/11/25 02:24:33;;;;;;;3.97;0.90;;;;;;;;;;4983092;28;20030;-75
2023/11/25 02:26:59;;;;;;;5.50;1.02;;;;;;;;;;4981536;28;20027;-75
2023/11/25 02:29:25;;;;;;;4.43;0.85;;;;;;;;;;4973677;28;20035;-75
2023/11/25 02:31:50;;;;;;;2.83;0.93;;;;;;;;;;4992123;28;20483;-75
2023/11/25 02:34:15;;;;;;;4.55;0.85;;;;;;;;;;4979542;28;20027;-75
2023/11/25 02:36:41;;;;;;;5.80;1.48;;;;;;;;;;4983292;28;20494;-75
2023/11/25 02:39:06;;;;;;;3.50;0.77;;;;;;;;;;4982729;28;20061;-75
2023/11/25 02:41:32;;;;;;;4.38;1.05;;;;;;;;;;4981356;28;20076;-75
2023/11/25 02:43:57;;;;;;;5.43;0.95;;;;;;;;;;4991874;28;20158;-75
2023/11/25 02:46:23;;;;;;;3.45;0.90;;;;;;;;;;4988550;28;20409;-76
2023/11/25 02:48:49;;;;;;;2.97;0.75;;;;;;;;;;4987364;28;20037;-75
2023/11/25 02:51:14;;;;;;;5.60;1.08;;;;;;;;;;4979569;28;20027;-75
2023/11/25 02:53:39;;;;;;;3.05;0.95;;;;;;;;;;4985535;28;20106;-75
2023/11/25 02:56:06;;;;;;;3.22;1.02;;;;;;;;;;4980559;28;20041;-76
2023/11/25 02:58:32;;;;;;;2.70;1.10;;;;;;;;;;4983777;28;20027;-75
2023/11/25 03:01:01;;;;;;;4.00;1.13;;;;;;;;;;4986888;28;20037;-75
2023/11/25 03:03:27;;;;;;;4.03;0.73;;;;;;;;;;4988703;28;20084;-75
2023/11/25 03:05:53;;;;;;;7.03;1.40;;;;;;;;;;4987759;28;20083;-76
2023/11/25 03:08:18;;;;;;;4.78;1.02;;;;;;;;;;4982879;28;20441;-75
2023/11/25 03:10:46;;;;;;;5.07;1.13;;;;;;;;;;4987807;28;20030;-75
2023/11/25 03:13:12;;;;;;;8.15;1.23;;;;;;;;;;4973339;28;20045;-75
2023/11/25 03:15:37;;;;;;;3.83;1.02;;;;;;;;;;4981299;28;20192;-76
2023/11/25 03:18:03;;;;;;;4.38;1.35;;;;;;;;;;4980068;28;20410;-75
2023/11/25 03:20:28;;;;;;;7.13;1.45;;;;;;;;;;4982133;28;20035;-75
2023/11/25 03:22:53;;;;;;;4.50;1.15;;;;;;;;;;4984391;28;20042;-76
2023/11/25 03:25:18;;;;;;;6.13;1.00;;;;;;;;;;4976658;28;20031;-76
2023/11/25 03:27:44;;;;;;;5.43;1.17;;;;;;;;;;4984160;28;20106;-75
2023/11/25 03:30:11;;;;;;;6.10;1.00;;;;;;;;;;4979265;28;20399;-75
2023/11/25 03:32:36;;;;;;;5.72;0.82;;;;;;;;;;4978386;28;20042;-75
2023/11/25 03:35:02;;;;;;;5.28;1.35;;;;;;;;;;4981067;28;20023;-76
2023/11/25 03:37:27;;;;;;;6.03;1.40;;;;;;;;;;4982704;28;20038;-76
2023/11/25 03:39:52;;;;;;;6.30;1.20;;;;;;;;;;4983601;28;20079;-76
2023/11/25 03:42:19;;;;;;;5.88;1.02;;;;;;;;;;4975823;28;20088;-76
2023/11/25 03:44:46;;;;;;;4.65;1.20;;;;;;;;;;4985886;28;20030;-76
2023/11/25 03:47:13;;;;;;;7.88;1.58;;;;;;;;;;4992122;28;20391;-76
2023/11/25 03:49:38;;;;;;;5.80;1.30;;;;;;;;;;4983187;28;20039;-76
2023/11/25 03:52:05;;;;;;;6.25;1.50;;;;;;;;;;4978658;28;20026;-76
2023/11/25 03:54:31;;;;;;;3.22;1.00;;;;;;;;;;4977899;28;20035;-76
2023/11/25 03:56:58;;;;;;;4.38;1.42;;;;;;;;;;4977764;28;20031;-76
2023/11/25 03:59:24;;;;;;;6.82;1.15;;;;;;;;;;4978334;28;20388;-76
2023/11/25 04:01:50;;;;;;;8.48;1.40;;;;;;;;;;4980648;28;20035;-76
2023/11/25 04:04:16;;;;;;;7.38;1.42;;;;;;;;;;4983940;28;20030;-76
2023/11/25 04:06:41;;;;;;;7.88;1.60;;;;;;;;;;4981102;28;20191;-76
2023/11/25 04:09:06;;;;;;;6.63;1.88;;;;;;;;;;4977062;28;20117;-76
2023/11/25 04:11:31;;;;;;;7.78;1.60;;;;;;;;;;4981287;28;20455;-76
2023/11/25 04:13:57;;;;;;;7.07;1.52;;;;;;;;;;4978481;28;20041;-76
2023/11/25 04:16:25;;;;;;;6.47;1.38;;;;;;;;;;4978546;28;20042;-76
2023/11/25 04:18:51;;;;;;;7.50;1.63;;;;;;;;;;4975239;28;20430;-76
2023/11/25 04:21:22;;;;;;;4.80;1.30;;;;;;;;;;4977056;28;20045;-76
2023/11/25 04:23:51;;;;;;;6.60;2.40;;;;;;;;;;4979174;28;20046;-76
2023/11/25 04:26:19;;;;;;;8.98;1.40;;;;;;;;;;4982885;28;20129;-77
2023/11/25 04:28:44;;;;;;;4.32;1.23;;;;;;;;;;4984772;28;20117;-76
2023/11/25 04:31:10;;;;;;;7.10;1.30;;;;;;;;;;4980999;28;20113;-76
2023/11/25 04:33:35;;;;;;;6.45;1.67;;;;;;;;;;4978550;28;20049;-76
2023/11/25 04:36:00;;;;;;;5.03;1.60;;;;;;;;;;4974900;28;20033;-76
2023/11/25 04:38:25;;;;;;;8.63;1.55;;;;;;;;;;4978282;28;20035;-76
2023/11/25 04:40:50;;;;;;;7.43;2.13;;;;;;;;;;4989191;28;20035;-76
2023/11/25 04:43:15;;;;;;;6.28;1.33;;;;;;;;;;4984129;28;20096;-77
2023/11/25 04:45:40;;;;;;;7.93;2.22;;;;;;;;;;5019157;28;20473;-76
2023/11/25 04:48:06;;;;;;;6.97;1.50;;;;;;;;;;5011792;28;20035;-77
2023/11/25 04:50:32;;;;;;;5.85;2.10;;;;;;;;;;4995141;28;20096;-77
2023/11/25 04:52:59;;;;;;;6.75;2.03;;;;;;;;;;4998499;28;20027;-76
2023/11/25 04:55:27;;;;;;;7.38;1.35;;;;;;;;;;4991779;28;20033;-76
2023/11/25 04:57:53;;;;;;;5.10;1.92;;;;;;;;;;4988436;28;20376;-76
2023/11/25 05:00:18;;;;;;;8.98;1.83;;;;;;;;;;4981217;28;20050;-76
2023/11/25 05:02:43;;;;;;;8.85;2.00;;;;;;;;;;4983253;28;20038;-76
2023/11/25 05:05:09;;;;;;;5.80;1.65;;;;;;;;;;4981052;28;20035;-76
2023/11/25 05:07:34;;;;;;;10.05;1.73;;;;;;;;;;5004078;28;20030;-76
2023/11/25 05:09:59;;;;;;;9.85;2.10;;;;;;;;;;4990118;28;20475;-76
2023/11/25 05:12:25;;;;;;;8.57;2.33;;;;;;;;;;4983770;28;20039;-76
2023/11/25 05:14:50;;;;;;;8.45;1.83;;;;;;;;;;4986588;28;20029;-76
2023/11/25 05:17:15;;;;;;;8.15;2.08;;;;;;;;;;5014692;28;20039;-76
2023/11/25 05:19:41;;;;;;;8.88;2.30;;;;;;;;;;4986613;28;20023;-76
2023/11/25 05:22:06;;;;;;;9.77;1.80;;;;;;;;;;4987617;28;20503;-76
2023/11/25 05:24:31;;;;;;;5.43;2.10;;;;;;;;;;4982183;28;20022;-76
2023/11/25 05:26:57;;;;;;;6.90;1.73;;;;;;;;;;4986626;28;20105;-76
2023/11/25 05:29:22;;;;;;;10.07;2.58;;;;;;;;;;5002940;28;20045;-76
2023/11/25 05:31:47;;;;;;;7.03;2.13;;;;;;;;;;4983191;28;20387;-76
2023/11/25 05:34:13;;;;;;;6.68;1.98;;;;;;;;;;4998106;28;20027;-76
2023/11/25 05:36:38;;;;;;;9.50;2.13;;;;;;;;;;4989994;28;20079;-76
2023/11/25 05:39:06;;;;;;;6.85;1.50;;;;;;;;;;4983613;28;20031;-76
2023/11/25 05:41:35;;;;;;;7.70;1.63;;;;;;;;;;4979765;28;20490;-76
2023/11/25 05:44:02;;;;;;;8.27;1.77;;;;;;;;;;4982457;28;20422;-76
2023/11/25 05:46:28;;;;;;;9.02;1.33;;;;;;;;;;4983228;28;20038;-76
2023/11/25 05:48:54;;;;;;;8.75;1.70;;;;;;;;;;4995867;28;20097;-76
2023/11/25 05:51:19;;;;;;;11.57;1.70;;;;;;;;;;4989294;28;20591;-76
2023/11/25 05:53:45;;;;;;;10.93;1.65;;;;;;;;;;4981731;28;20035;-76
2023/11/25 05:56:10;;;;;;;8.60;2.50;;;;;;;;;;5003342;28;20541;-76
2023/11/25 05:58:35;;;;;;;6.90;1.70;;;;;;;;;;4987170;28;20069;-76
2023/11/25 06:01:02;;;;;;;7.93;2.25;;;;;;;;;;5009469;28;20408;-77
2023/11/25 06:03:27;;;;;;;9.60;1.85;;;;;;;;;;4992956;28;20046;-76
2023/11/25 06:05:52;;;;;;;7.20;2.00;;;;;;;;;;4979290;28;20411;-76
2023/11/25 06:08:18;;;;;;;9.43;1.48;;;;;;;;;;4984682;28;20468;-76
2023/11/25 06:10:43;;;;;;;6.68;1.52;;;;;;;;;;4991426;28;20101;-76
2023/11/25 06:13:08;;;;;;;5.25;0.80;;;;;;;;;;4993762;28;20551;-76
2023/11/25 06:15:33;;;;;;;7.00;1.70;;;;;;;;;;4979959;28;20436;-76
2023/11/25 06:17:59;;;;;;;8.23;1.30;;;;;;;;;;4997749;28;20027;-76
2023/11/25 06:20:25;;;;;;;8.32;1.50;;;;;;;;;;4982676;28;20541;-76
2023/11/25 06:22:52;;;;;;;7.00;1.30;;;;;;;;;;4982697;28;20036;-76
2023/11/25 06:25:17;;;;;;;5.80;1.35;;;;;;;;;;5001216;28;20325;-76
2023/11/25 06:27:42;;;;;;;10.80;1.48;;;;;;;;;;4994825;28;20138;-76
2023/11/25 06:30:08;;;;;;;9.90;1.23;;;;;;;;;;4979572;28;20590;-76
2023/11/25 06:32:33;;;;;;;7.25;1.45;;;;;;;;;;4981622;28;20478;-76
2023/11/25 06:34:58;;;;;;;8.25;1.63;;;;;;;;;;4982892;28;20030;-76
2023/11/25 06:37:24;;;;;;;7.43;0.93;;;;;;;;;;4989941;28;20062;-76
2023/11/25 06:39:49;;;;;;;7.18;1.38;;;;;;;;;;5013657;28;20034;-76
2023/11/25 06:42:14;;;;;;;6.03;1.83;;;;;;;;;;5013676;28;20038;-76
2023/11/25 06:44:41;;;;;;;6.55;1.33;;;;;;;;;;5003715;28;20037;-76
2023/11/25 06:47:07;;;;;;;9.20;1.45;;;;;;;;;;4994443;23;20063;-79
2023/11/25 06:49:32;;;;;;;7.82;1.60;;;;;;;;;;4988274;28;20054;-77
2023/11/25 06:51:58;;;;;;;3.28;1.10;;;;;;;;;;4984443;28;20097;-76
2023/11/25 06:54:23;;;;;;;5.68;1.45;;;;;;;;;;4988432;28;20083;-78
2023/11/25 06:56:48;;;;;;;9.85;1.48;;;;;;;;;;4985057;28;20030;-77
2023/11/25 06:59:14;;;;;;;5.45;1.23;;;;;;;;;;4984863;28;20034;-78
2023/11/25 07:01:39;;;;;;;5.38;2.10;;;;;;;;;;4985323;28;20172;-78
2023/11/25 07:04:05;;;;;;;6.82;1.70;;;;;;;;;;4985663;28;20030;-77
2023/11/25 07:06:30;;;;;;;6.20;1.27;;;;;;;;;;4982229;28;20100;-78
2023/11/25 07:08:59;;;;;;;7.88;1.15;;;;;;;;;;4984752;28;20042;-76
2023/11/25 07:11:25;;;;;;;5.93;1.63;;;;;;;;;;4987377;28;20030;-78
2023/11/25 07:13:50;;;;;;;7.80;1.35;;;;;;;;;;4983726;28;20098;-78
2023/11/25 07:16:16;;;;;;;9.80;1.40;;;;;;;;;;4987489;28;20066;-78
2023/11/25 07:18:42;;;;;;;12.52;2.05;;;;;;;;;;4994120;28;20462;-77
2023/11/25 07:21:11;;;;;;;9.52;1.40;;;;;;;;;;4982356;28;20039;-77
2023/11/25 07:23:37;;;;;;;8.77;1.48;;;;;;;;;;4984807;28;20052;-78
2023/11/25 07:26:02;;;;;;;7.40;1.15;;;;;;;;;;4985484;28;20051;-78
2023/11/25 07:28:27;;;;;;;7.10;1.30;;;;;;;;;;4985569;28;20050;-78
2023/11/25 07:30:52;;;;;;;6.70;1.00;;;;;;;;;;4980178;28;20383;-78
2023/11/25 07:33:18;;;;;;;6.85;1.17;;;;;;;;;;4979987;28;20445;-77
2023/11/25 07:35:43;;;;;;;4.90;0.95;;;;;;;;;;4982439;28;20566;-78
2023/11/25 07:38:09;;;;;;;5.65;1.00;;;;;;;;;;4982643;28;20032;-78
2023/11/25 07:40:34;;;;;;;10.07;1.40;;;;;;;;;;4986322;28;20109;-78
2023/11/25 07:43:00;;;;;;;11.32;1.55;;;;;;;;;;4988344;28;20033;-79
2023/11/25 07:45:25;;;;;;;7.18;1.75;;;;;;;;;;4980865;28;20038;-78
2023/11/25 07:47:51;;;;;;;7.60;1.30;;;;;;;;;;4982158;28;20030;-78
2023/11/25 07:50:16;;;;;;;5.60;1.00;;;;;;;;;;4983869;28;20057;-77
2023/11/25 07:52:42;;;;;;;9.70;1.75;;;;;;;;;;4984081;28;20026;-77
2023/11/25 07:55:08;;;;;;;7.55;1.40;;;;;;;;;;4983484;28;20035;-78
2023/11/25 07:57:34;;;;;;;5.65;1.10;;;;;;;;;;4985610;28;20042;-77
2023/11/25 07:59:59;;;;;;;6.40;1.00;;;;;;;;;;4983677;28;20097;-79
2023/11/25 08:02:24;;;;;;;6.68;2.08;;;;;;;;;;4987016;28;20486;-79
2023/11/25 08:04:50;;;;;;;6.82;1.15;;;;;;;;;;4987929;28;20053;-78
2023/11/25 08:07:15;;;;;;;5.72;1.55;;;;;;;;;;4988521;28;20046;-79
2023/11/25 08:09:41;;;;;;;3.83;1.17;;;;;;;;;;4985151;28;20034;-78
2023/11/25 08:12:06;;;;;;;5.35;1.60;;;;;;;;;;4984948;28;20039;-78
2023/11/25 08:14:31;;;;;;;6.50;1.17;;;;;;;;;;4990202;28;20034;-79
2023/11/25 08:16:56;;;;;;;8.13;1.05;;;;;;;;;;4988959;28;20049;-78
2023/11/25 08:19:22;;;;;;;5.10;0.70;;;;;;;;;;4988446;28;20566;-79
2023/11/25 08:21:50;;;;;;;5.80;1.20;;;;;;;;;;4985235;28;20026;-78
2023/11/25 08:24:17;;;;;;;7.95;1.10;;;;;;;;;;4987692;28;20130;-79
2023/11/25 08:26:43;;;;;;;6.82;1.40;;;;;;;;;;4984066;28;20035;-79
2023/11/25 08:29:08;;;;;;;4.75;1.10;;;;;;;;;;4982920;28;20053;-77
2023/11/25 08:31:34;;;;;;;6.03;1.83;;;;;;;;;;4988621;28;20092;-78
2023/11/25 08:34:09;;;;;;;4.25;1.60;;;;;;;;;;4986175;28;20526;-80
2023/11/25 08:36:36;;;;;;;6.82;1.30;;;;;;;;;;4988915;28;20034;-79
2023/11/25 08:39:01;;;;;;;9.18;1.77;;;;;;;;;;4989186;28;20070;-79
2023/11/25 08:41:27;;;;;;;7.28;1.35;;;;;;;;;;4988541;28;20049;-78
2023/11/25 08:43:52;;;;;;;7.57;1.58;;;;;;;;;;4986272;28;20041;-78
2023/11/25 08:46:19;;;;;;;7.68;1.77;;;;;;;;;;4986935;28;20563;-80
2023/11/25 08:48:45;;;;;;;8.85;1.50;;;;;;;;;;4984941;28;20590;-78
2023/11/25 08:51:11;;;;;;;6.63;1.17;;;;;;;;;;4987911;28;20054;-78
2023/11/25 08:53:39;;;;;;;5.07;1.10;;;;;;;;;;4988423;28;20035;-79
2023/11/25 08:56:06;;;;;;;7.00;1.20;;;;;;;;;;4985666;28;20126;-79
2023/11/25 08:58:31;;;;;;;8.48;1.55;;;;;;;;;;4989931;28;20049;-79
2023/11/25 09:00:56;;;;;;;8.85;1.55;;;;;;;;;;4984625;28;20122;-79
2023/11/25 09:03:22;;;;;;;7.63;1.30;;;;;;;;;;4989810;28;20034;-79
2023/11/25 09:05:48;;;;;;;4.35;0.98;;;;;;;;;;4986575;28;20034;-79
2023/11/25 09:08:13;;;;;;;9.38;1.05;;;;;;;;;;4988636;28;20096;-79
2023/11/25 09:10:39;;;;;;;9.32;1.10;;;;;;;;;;4990313;28;20099;-79
2023/11/25 09:13:04;;;;;;;3.25;1.08;;;;;;;;;;4987015;28;20049;-78
2023/11/25 09:15:29;;;;;;;6.82;1.13;;;;;;;;;;4986115;28;20023;-78
2023/11/25 09:17:54;;;;;;;3.83;1.08;;;;;;;;;;4987527;28;20498;-78
2023/11/25 09:20:21;;;;;;;6.85;1.60;;;;;;;;;;4984956;28;20030;-79
2023/11/25 09:22:46;;;;;;;6.20;1.33;;;;;;;;;;4985580;28;20034;-79
2023/11/25 09:25:12;;;;;;;5.43;1.30;;;;;;;;;;4982722;28;20065;-78
2023/11/25 09:27:41;;;;;;;5.93;1.52;;;;;;;;;;4986777;28;20080;-78
2023/11/25 09:30:10;;;;;;;4.90;1.63;;;;;;;;;;4989483;28;20027;-79
2023/11/25 09:32:36;;;;;;;3.67;1.00;;;;;;;;;;4989013;28;20054;-78
2023/11/25 09:35:01;;;;;;;7.03;1.80;;;;;;;;;;4988244;28;20091;-79
2023/11/25 09:37:26;;;;;;;8.15;1.80;;;;;;;;;;4996671;28;20031;-81
2023/11/25 09:39:51;;;;;;;6.90;1.52;;;;;;;;;;4989958;28;20106;-77
2023/11/25 09:42:17;;;;;;;7.82;1.73;;;;;;;;;;4989166;28;20038;-80
2023/11/25 09:44:42;;;;;;;4.57;1.20;;;;;;;;;;4985718;28;20406;-78
2023/11/25 09:47:07;;;;;;;4.78;1.08;;;;;;;;;;4986148;28;20039;-79
2023/11/25 09:49:32;;;;;;;6.35;1.55;;;;;;;;;;4983313;28;20039;-78
2023/11/25 09:52:00;;;;;;;9.00;1.35;;;;;;;;;;4982307;28;20039;-77
2023/11/25 09:54:26;;;;;;;2.83;0.70;;;;;;;;;;4985105;28;20023;-79
2023/11/25 09:56:52;;;;;;;5.32;1.48;;;;;;;;;;4986694;28;20471;-79
2023/11/25 09:59:20;;;;;;;8.15;1.67;;;;;;;;;;4987882;28;20037;-78
2023/11/25 10:01:46;;;;;;;6.20;1.98;;;;;;;;;;4985545;28;20038;-77
2023/11/25 10:04:15;;;;;;;7.10;1.17;;;;;;;;;;4986643;28;20038;-79
2023/11/25 10:06:41;;;;;;;8.45;1.77;;;;;;;;;;4983885;28;20126;-78
2023/11/25 10:09:09;;;;;;;10.48;1.30;;;;;;;;;;4986537;28;20069;-80
2023/11/25 10:11:35;;;;;;;3.78;0.85;;;;;;;;;;4992541;28;20035;-79
2023/11/25 10:14:02;;;;;;;5.72;1.58;;;;;;;;;;4986390;28;20041;-78
2023/11/25 10:16:28;;;;;;;9.95;1.30;;;;;;;;;;4987221;28;20041;-78
2023/11/25 10:18:53;;;;;;;4.90;0.93;;;;;;;;;;4991552;28;20490;-78
2023/11/25 10:21:19;;;;;;;9.00;1.13;;;;;;;;;;4990661;28;20035;-79
2023/11/25 10:23:44;;;;;;;5.07;1.00;;;;;;;;;;4986801;28;20026;-79
2023/11/25 10:26:09;;;;;;;9.50;1.50;;;;;;;;;;4988768;28;20098;-80
2023/11/25 10:28:36;;;;;;;9.57;1.52;;;;;;;;;;4965153;28;20066;-79
2023/11/25 10:31:05;;;;;;;9.77;2.08;;;;;;;;;;4984058;28;20037;-80
2023/11/25 10:33:30;;;;;;;9.35;1.33;;;;;;;;;;4986263;28;20031;-78
2023/11/25 10:35:56;;;;;;;5.32;1.30;;;;;;;;;;4986445;28;20046;-80
2023/11/25 10:38:22;;;;;;;5.72;1.05;;;;;;;;;;4986423;28;20155;-80
2023/11/25 10:40:49;;;;;;;5.38;1.10;;;;;;;;;;4985287;28;20031;-80
2023/11/25 10:43:15;;;;;;;6.45;1.38;;;;;;;;;;4985663;28;20049;-79
2023/11/25 10:45:42;;;;;;;5.88;1.33;;;;;;;;;;4988457;28;20026;-79
2023/11/25 10:48:07;;;;;;;8.15;1.80;;;;;;;;;;4991377;28;20046;-80
2023/11/25 10:50:33;;;;;;;5.95;1.10;;;;;;;;;;4984968;28;20030;-80
2023/11/25 10:53:00;;;;;;;11.05;1.95;;;;;;;;;;4985993;28;20054;-78
2023/11/25 10:55:27;;;;;;;4.60;1.50;;;;;;;;;;4984788;28;20038;-80
2023/11/25 10:57:53;;;;;;;6.10;1.38;;;;;;;;;;5000969;28;20308;-80
2023/11/25 11:00:19;;;;;;;8.43;1.52;;;;;;;;;;4997084;28;20030;-79
2023/11/25 11:02:45;;;;;;;5.30;1.60;;;;;;;;;;4991290;28;20054;-77
2023/11/25 11:05:11;;;;;;;5.78;1.33;;;;;;;;;;4982101;28;20043;-78
2023/11/25 11:07:37;;;;;;;6.20;1.98;;;;;;;;;;4986415;28;20022;-76
2023/11/25 11:10:05;;;;;;;6.90;1.33;;;;;;;;;;4983380;28;20526;-76
2023/11/25 11:12:34;;;;;;;11.55;2.00;;;;;;;;;;4981642;28;20054;-77
2023/11/25 11:15:06;;;;;;;8.18;1.77;;;;;;;;;;4978173;28;20042;-77
2023/11/25 11:17:38;;;;;;;3.58;1.30;;;;;;;;;;4984661;28;20117;-76
2023/11/25 11:20:10;;;;;;;12.15;2.22;;;;;;;;;;4982037;28;20483;-77
2023/11/25 11:22:35;;;;;;;5.32;1.40;;;;;;;;;;4979907;28;20042;-76
2023/11/25 11:25:02;;;;;;;4.45;1.38;;;;;;;;;;4982699;28;20414;-77
2023/11/25 11:27:31;;;;;;;5.18;1.30;;;;;;;;;;4977945;28;20035;-76
2023/11/25 11:30:01;;;;;;;6.03;1.33;;;;;;;;;;4979011;28;20117;-77
2023/11/25 11:32:29;;;;;;;8.43;2.60;;;;;;;;;;4982725;28;20103;-77
2023/11/25 11:34:56;;;;;;;5.30;1.70;;;;;;;;;;4977739;28;20077;-77
2023/11/25 11:37:21;;;;;;;4.50;1.48;;;;;;;;;;4983309;28;20487;-75
2023/11/25 11:39:49;;;;;;;8.95;1.85;;;;;;;;;;4981871;28;20034;-77
2023/11/25 11:42:27;;;;;;;7.25;2.08;;;;;;;;;;4978170;28;20042;-77
2023/11/25 11:44:56;;;;;;;5.15;2.17;;;;;;;;;;4978950;28;20037;-77
2023/11/25 11:47:22;;;;;;;5.88;1.90;;;;;;;;;;4982349;28;20129;-75
2023/11/25 11:49:49;;;;;;;8.70;1.88;;;;;;;;;;4981101;28;20042;-77
2023/11/25 11:52:14;;;;;;;7.65;1.83;;;;;;;;;;4982728;28;20042;-76
2023/11/25 11:54:41;;;;;;;8.73;1.80;;;;;;;;;;4977106;28;20034;-77
2023/11/25 11:57:13;;;;;;;6.28;1.92;;;;;;;;;;4980805;28;20109;-77
2023/11/25 11:59:55;;;;;;;6.82;2.00;;;;;;;;;;4982899;28;20062;-76
2023/11/25 12:02:20;;;;;;;8.52;2.13;;;;;;;;;;4985030;28;20046;-77
2023/11/25 12:04:45;;;;;;;5.50;2.42;;;;;;;;;;4978823;28;20035;-76
2023/11/25 12:07:11;;;;;;;9.32;1.90;;;;;;;;;;4980507;28;20053;-77
2023/11/25 12:09:36;;;;;;;6.32;1.70;;;;;;;;;;4978663;28;20063;-77
2023/11/25 12:12:01;;;;;;;8.88;2.28;;;;;;;;;;4979696;28;20059;-77
2023/11/25 12:14:26;;;;;;;5.93;2.08;;;;;;;;;;4984185;28;20030;-78
2023/11/25 12:16:52;;;;;;;6.15;1.55;;;;;;;;;;4986082;28;20122;-74
2023/11/25 12:19:17;;;;;;;6.63;1.63;;;;;;;;;;4981132;28;20026;-77
2023/11/25 12:21:42;;;;;;;6.80;2.03;;;;;;;;;;4983419;28;20108;-79
2023/11/25 12:24:11;;;;;;;6.38;2.00;;;;;;;;;;4985902;28;20041;-78
2023/11/25 12:26:37;;;;;;;3.75;2.05;;;;;;;;;;4984344;28;20472;-78
2023/11/25 12:29:03;;;;;;;5.85;1.98;;;;;;;;;;4979348;28;20121;-78
2023/11/25 12:31:29;;;;;;;6.22;1.75;;;;;;;;;;4981819;28;20061;-79
2023/11/25 12:33:55;;;;;;;5.63;2.03;;;;;;;;;;4980961;28;20057;-78
2023/11/25 12:36:21;;;;;;;4.40;1.80;;;;;;;;;;4979752;28;20027;-78
2023/11/25 12:38:47;;;;;;;5.60;2.42;;;;;;;;;;4981439;28;20090;-78
2023/11/25 12:41:15;;;;;;;4.50;1.75;;;;;;;;;;4980499;28;20061;-78
2023/11/25 12:44:02;;;;;;;4.32;1.65;;;;;;;;;;4983566;28;20065;-77
2023/11/25 12:46:27;;;;;;;5.45;2.00;;;;;;;;;;4981134;28;20079;-78
2023/11/25 12:48:52;;;;;;;5.35;1.92;;;;;;;;;;4979389;28;20403;-78
2023/11/25 12:51:18;;;;;;;5.60;2.00;;;;;;;;;;4978808;28;20117;-77
2023/11/25 12:53:56;;;;;;;3.35;1.52;;;;;;;;;;4984424;28;20044;-78
2023/11/25 12:56:21;;;;;;;4.30;1.85;;;;;;;;;;4980246;28;20034;-79
2023/11/25 12:58:46;;;;;;;4.13;1.70;;;;;;;;;;4977634;28;20042;-79
2023/11/25 13:01:12;;;;;;;4.03;1.90;;;;;;;;;;4979536;28;20076;-79
2023/11/25 13:03:38;;;;;;;5.25;2.15;;;;;;;;;;4978397;28;20045;-79
2023/11/25 13:06:10;;;;;;;4.47;1.90;;;;;;;;;;4977676;28;20031;-79
2023/11/25 13:08:37;;;;;;;3.95;1.67;;;;;;;;;;4976892;28;20510;-78
2023/11/25 13:11:03;;;;;;;4.78;1.98;;;;;;;;;;4982031;28;20031;-78
2023/11/25 13:13:29;;;;;;;3.58;1.60;;;;;;;;;;4984759;28;20025;-79
2023/11/25 13:15:55;;;;;;;4.40;2.17;;;;;;;;;;4979856;28;20031;-78
2023/11/25 13:18:21;;;;;;;3.38;1.65;;;;;;;;;;4982018;28;20034;-79
2023/11/25 13:20:46;;;;;;;3.08;1.50;;;;;;;;;;4989266;28;20060;-79
2023/11/25 13:23:11;;;;;;;3.55;2.08;;;;;;;;;;4988635;28;20046;-78
2023/11/25 13:25:37;;;;;;;5.55;2.25;;;;;;;;;;4986225;28;20105;-79
2023/11/25 13:28:02;;;;;;;5.28;1.83;;;;;;;;;;4981018;28;20128;-78
2023/11/25 13:30:27;;;;;;;3.92;1.80;;;;;;;;;;4985101;28;20105;-79
2023/11/25 13:32:53;;;;;;;4.18;1.70;;;;;;;;;;4984403;28;20483;-79
2023/11/25 13:35:18;;;;;;;5.45;2.30;;;;;;;;;;4988127;28;20105;-78
2023/11/25 13:37:44;;;;;;;4.40;2.10;;;;;;;;;;4986101;28;20062;-78
2023/11/25 13:40:15;;;;;;;3.38;1.60;;;;;;;;;;4988533;28;20084;-79
2023/11/25 13:42:40;;;;;;;4.57;2.15;;;;;;;;;;4983084;28;20034;-79
2023/11/25 13:45:09;;;;;;;6.10;1.83;;;;;;;;;;4983053;28;20090;-78
2023/11/25 13:47:34;;;;;;;3.85;2.20;;;;;;;;;;4986518;28;20536;-79
2023/11/25 13:49:59;;;;;;;6.35;2.22;;;;;;;;;;4986621;28;20039;-79
2023/11/25 13:52:25;;;;;;;5.88;2.35;;;;;;;;;;4988431;28;20039;-78
2023/11/25 13:54:50;;;;;;;5.15;2.67;;;;;;;;;;4983576;28;20479;-79
2023/11/25 13:57:15;;;;;;;5.28;2.58;;;;;;;;;;4987348;28;20038;-79
2023/11/25 13:59:40;;;;;;;8.20;3.70;;;;;;;;;;4980201;28;20027;-78
2023/11/25 14:02:06;;;;;;;7.60;3.45;;;;;;;;;;4988889;28;20591;-79
2023/11/25 14:04:32;;;;;;;7.10;2.78;;;;;;;;;;4988449;28;20114;-78
2023/11/25 14:06:59;;;;;;;5.53;2.60;;;;;;;;;;4985729;28;20031;-79
2023/11/25 14:09:26;;;;;;;7.45;3.67;;;;;;;;;;4983915;28;20030;-78
2023/11/25 14:11:51;;;;;;;5.32;2.53;;;;;;;;;;4983630;28;20023;-79
2023/11/25 14:14:16;;;;;;;8.20;3.40;;;;;;;;;;4982997;28;20100;-79
2023/11/25 14:16:47;;;;;;;6.13;2.65;;;;;;;;;;4987475;28;20056;-79
2023/11/25 14:19:12;;;;;;;5.72;3.05;;;;;;;;;;4981070;28;20084;-79
2023/11/25 14:21:37;;;;;;;5.60;3.00;;;;;;;;;;4985089;28;20449;-79
2023/11/25 14:24:04;;;;;;;6.82;3.17;;;;;;;;;;4983267;28;20043;-78
2023/11/25 14:26:29;;;;;;;6.80;3.97;;;;;;;;;;4983302;28;20042;-79
2023/11/25 14:28:54;;;;;;;5.85;3.38;;;;;;;;;;4983508;28;20414;-79
2023/11/25 14:31:20;;;;;;;5.68;2.90;;;;;;;;;;4988585;28;20055;-79
2023/11/25 14:33:45;;;;;;;4.82;3.13;;;;;;;;;;4986521;28;20026;-79
2023/11/25 14:36:12;;;;;;;6.28;3.50;;;;;;;;;;4987463;28;20038;-79